sensor_id;sensor_type;location;lat;lon;timestamp;temperature;humidity
7720;DHT22;3902;49.474;8.616;2022-11-14T00:00:34;7.30;99.90
7720;DHT22;3902;49.474;8.616;2022-11-14T00:03:02;7.30;99.90
7720;DHT22;3902;49.474;8.616;2022-11-14T00:05:28;7.30;99.90
7720;DHT22;3902;49.474;8.616;2022-11-14T00:07:53;7.30;99.90
7720;DHT22;3902;49.474;8.616;2022-11-14T00:10:19;7.30;99.90
7720;DHT22;3902;49.474;8.616;2022-11-14T00:12:45;7.30;99.90
7720;DHT22;3902;49.474;8.616;2022-11-14T00:15:11;7.40;99.90
7720;DHT22;3902;49.474;8.616;2022-11-14T00:17:37;7.40;99.90
7720;DHT22;3902;49.474;8.616;2022-11-14T00:20:04;7.40;99.90
7720;DHT22;3902;49.474;8.616;2022-11-14T00:22:30;7.40;99.90
7720;DHT22;3902;49.474;8.616;2022-11-14T00:24:55;7.50;99.90
7720;DHT22;3902;49.474;8.616;2022-11-14T00:27:21;7.50;99.90
7720;DHT22;3902;49.474;8.616;2022-11-14T00:29:46;7.50;99.90
7720;DHT22;3902;49.474;8.616;2022-11-14T00:32:12;7.50;99.90
7720;DHT22;3902;49.474;8.616;2022-11-14T00:34:37;7.50;99.90
7720;DHT22;3902;49.474;8.616;2022-11-14T00:37:03;7.50;99.90
7720;DHT22;3902;49.474;8.616;2022-11-14T00:39:28;7.50;99.90
7720;DHT22;3902;49.474;8.616;2022-11-14T00:41:54;7.60;99.90
7720;DHT22;3902;49.474;8.616;2022-11-14T00:44:19;7.60;99.90
7720;DHT22;3902;49.474;8.616;2022-11-14T00:46:45;7.60;99.90
7720;DHT22;3902;49.474;8.616;2022-11-14T00:49:10;7.60;99.90
7720;DHT22;3902;49.474;8.616;2022-11-14T00:51:36;7.60;99.90
7720;DHT22;3902;49.474;8.616;2022-11-14T00:54:02;7.60;99.90
7720;DHT22;3902;49.474;8.616;2022-11-14T00:56:27;7.70;99.90
7720;DHT22;3902;49.474;8.616;2022-11-14T00:58:53;7.70;99.90
7720;DHT22;3902;49.474;8.616;2022-11-14T01:01:18;7.70;99.90
7720;DHT22;3902;49.474;8.616;2022-11-14T01:03:48;7.70;99.90
7720;DHT22;3902;49.474;8.616;2022-11-14T01:06:14;7.70;99.90
7720;DHT22;3902;49.474;8.616;2022-11-14T01:08:41;7.70;99.90
7720;DHT22;3902;49.474;8.616;2022-11-14T01:11:14;7.70;99.90
7720;DHT22;3902;49.474;8.616;2022-11-14T01:13:40;7.70;99.90
7720;DHT22;3902;49.474;8.616;2022-11-14T01:16:06;7.70;99.90
7720;DHT22;3902;49.474;8.616;2022-11-14T01:18:32;7.80;99.90
7720;DHT22;3902;49.474;8.616;2022-11-14T01:20:58;7.80;99.90
7720;DHT22;3902;49.474;8.616;2022-11-14T01:23:24;7.80;99.90
7720;DHT22;3902;49.474;8.616;2022-11-14T01:25:49;7.80;99.90
7720;DHT22;3902;49.474;8.616;2022-11-14T01:28:17;7.80;99.90
7720;DHT22;3902;49.474;8.616;2022-11-14T01:30:43;7.80;99.90
7720;DHT22;3902;49.474;8.616;2022-11-14T01:33:09;7.80;99.90
7720;DHT22;3902;49.474;8.616;2022-11-14T01:35:37;7.80;99.90
7720;DHT22;3902;49.474;8.616;2022-11-14T01:38:04;7.80;99.90
7720;DHT22;3902;49.474;8.616;2022-11-14T01:40:31;7.80;99.90
7720;DHT22;3902;49.474;8.616;2022-11-14T01:46:04;7.80;99.90
7720;DHT22;3902;49.474;8.616;2022-11-14T01:51:28;7.90;99.90
7720;DHT22;3902;49.474;8.616;2022-11-14T01:53:58;7.90;99.90
7720;DHT22;3902;49.474;8.616;2022-11-14T01:56:40;7.90;99.90
7720;DHT22;3902;49.474;8.616;2022-11-14T01:59:13;7.90;99.90
7720;DHT22;3902;49.474;8.616;2022-11-14T02:01:48;7.90;99.90
7720;DHT22;3902;49.474;8.616;2022-11-14T02:04:26;7.90;99.90
7720;DHT22;3902;49.474;8.616;2022-11-14T02:06:55;8.00;99.90
7720;DHT22;3902;49.474;8.616;2022-11-14T02:09:21;8.00;99.90
7720;DHT22;3902;49.474;8.616;2022-11-14T02:11:47;8.00;99.90
7720;DHT22;3902;49.474;8.616;2022-11-14T02:14:14;8.00;99.90
7720;DHT22;3902;49.474;8.616;2022-11-14T02:16:40;8.00;99.90
7720;DHT22;3902;49.474;8.616;2022-11-14T02:19:07;8.00;99.90
7720;DHT22;3902;49.474;8.616;2022-11-14T02:21:33;8.00;99.90
7720;DHT22;3902;49.474;8.616;2022-11-14T02:23:59;8.00;99.90
7720;DHT22;3902;49.474;8.616;2022-11-14T02:26:25;8.00;99.90
7720;DHT22;3902;49.474;8.616;2022-11-14T02:28:51;8.00;99.90
7720;DHT22;3902;49.474;8.616;2022-11-14T02:31:16;8.00;99.90
7720;DHT22;3902;49.474;8.616;2022-11-14T02:33:42;8.00;99.90
7720;DHT22;3902;49.474;8.616;2022-11-14T02:36:08;8.00;99.90
7720;DHT22;3902;49.474;8.616;2022-11-14T02:38:34;8.00;99.90
7720;DHT22;3902;49.474;8.616;2022-11-14T02:41:01;8.00;99.90
7720;DHT22;3902;49.474;8.616;2022-11-14T02:43:26;8.00;99.90
7720;DHT22;3902;49.474;8.616;2022-11-14T02:45:52;8.00;99.90
7720;DHT22;3902;49.474;8.616;2022-11-14T02:48:18;8.00;99.90
7720;DHT22;3902;49.474;8.616;2022-11-14T02:50:43;8.00;99.90
7720;DHT22;3902;49.474;8.616;2022-11-14T02:53:09;8.00;99.90
7720;DHT22;3902;49.474;8.616;2022-11-14T02:55:35;7.90;99.90
7720;DHT22;3902;49.474;8.616;2022-11-14T02:58:00;7.90;99.90
7720;DHT22;3902;49.474;8.616;2022-11-14T03:00:26;7.90;99.90
7720;DHT22;3902;49.474;8.616;2022-11-14T03:02:53;7.90;99.90
7720;DHT22;3902;49.474;8.616;2022-11-14T03:05:19;7.80;99.90
7720;DHT22;3902;49.474;8.616;2022-11-14T03:07:44;7.80;99.90
7720;DHT22;3902;49.474;8.616;2022-11-14T03:10:10;7.80;99.90
7720;DHT22;3902;49.474;8.616;2022-11-14T03:12:36;7.80;99.90
7720;DHT22;3902;49.474;8.616;2022-11-14T03:15:03;7.80;99.90
7720;DHT22;3902;49.474;8.616;2022-11-14T03:17:31;7.80;99.90
7720;DHT22;3902;49.474;8.616;2022-11-14T03:19:57;7.90;99.90
7720;DHT22;3902;49.474;8.616;2022-11-14T03:22:22;7.80;99.90
7720;DHT22;3902;49.474;8.616;2022-11-14T03:24:48;7.80;99.90
7720;DHT22;3902;49.474;8.616;2022-11-14T03:27:13;7.80;99.90
7720;DHT22;3902;49.474;8.616;2022-11-14T03:29:39;7.90;99.90
7720;DHT22;3902;49.474;8.616;2022-11-14T03:32:04;7.90;99.90
7720;DHT22;3902;49.474;8.616;2022-11-14T03:34:30;7.90;99.90
7720;DHT22;3902;49.474;8.616;2022-11-14T03:36:55;7.90;99.90
7720;DHT22;3902;49.474;8.616;2022-11-14T03:39:23;7.90;99.90
7720;DHT22;3902;49.474;8.616;2022-11-14T03:41:48;7.80;99.90
7720;DHT22;3902;49.474;8.616;2022-11-14T03:44:14;7.70;99.90
7720;DHT22;3902;49.474;8.616;2022-11-14T03:46:39;7.70;99.90
7720;DHT22;3902;49.474;8.616;2022-11-14T03:49:05;7.70;99.90
7720;DHT22;3902;49.474;8.616;2022-11-14T03:51:31;7.60;99.90
7720;DHT22;3902;49.474;8.616;2022-11-14T03:53:56;7.70;99.90
7720;DHT22;3902;49.474;8.616;2022-11-14T03:56:22;7.60;99.90
7720;DHT22;3902;49.474;8.616;2022-11-14T03:58:48;7.70;99.90
7720;DHT22;3902;49.474;8.616;2022-11-14T04:01:13;7.70;99.90
7720;DHT22;3902;49.474;8.616;2022-11-14T04:03:39;7.60;99.90
7720;DHT22;3902;49.474;8.616;2022-11-14T04:06:04;7.60;99.90
7720;DHT22;3902;49.474;8.616;2022-11-14T04:08:30;7.60;99.90
7720;DHT22;3902;49.474;8.616;2022-11-14T04:10:56;7.60;99.90
7720;DHT22;3902;49.474;8.616;2022-11-14T04:13:22;7.60;99.90
7720;DHT22;3902;49.474;8.616;2022-11-14T04:15:54;7.50;99.90
7720;DHT22;3902;49.474;8.616;2022-11-14T04:18:20;7.50;99.90
7720;DHT22;3902;49.474;8.616;2022-11-14T04:20:45;7.50;99.90
7720;DHT22;3902;49.474;8.616;2022-11-14T04:23:11;7.50;99.90
7720;DHT22;3902;49.474;8.616;2022-11-14T04:25:36;7.50;99.90
7720;DHT22;3902;49.474;8.616;2022-11-14T04:28:02;7.40;99.90
7720;DHT22;3902;49.474;8.616;2022-11-14T04:30:27;7.40;99.90
7720;DHT22;3902;49.474;8.616;2022-11-14T04:32:53;7.30;99.90
7720;DHT22;3902;49.474;8.616;2022-11-14T04:35:18;7.30;99.90
7720;DHT22;3902;49.474;8.616;2022-11-14T04:37:44;7.40;99.90
7720;DHT22;3902;49.474;8.616;2022-11-14T04:40:10;7.40;99.90
7720;DHT22;3902;49.474;8.616;2022-11-14T04:42:36;7.40;99.90
7720;DHT22;3902;49.474;8.616;2022-11-14T04:45:01;7.40;99.90
7720;DHT22;3902;49.474;8.616;2022-11-14T04:47:27;7.50;99.90
7720;DHT22;3902;49.474;8.616;2022-11-14T04:49:52;7.50;99.90
7720;DHT22;3902;49.474;8.616;2022-11-14T04:52:18;7.50;99.90
7720;DHT22;3902;49.474;8.616;2022-11-14T04:54:43;7.50;99.90
7720;DHT22;3902;49.474;8.616;2022-11-14T04:57:09;7.50;99.90
7720;DHT22;3902;49.474;8.616;2022-11-14T04:59:34;7.50;99.90
7720;DHT22;3902;49.474;8.616;2022-11-14T05:02:00;7.60;99.90
7720;DHT22;3902;49.474;8.616;2022-11-14T05:04:25;7.60;99.90
7720;DHT22;3902;49.474;8.616;2022-11-14T05:06:51;7.60;99.90
7720;DHT22;3902;49.474;8.616;2022-11-14T05:09:16;7.60;99.90
7720;DHT22;3902;49.474;8.616;2022-11-14T05:11:42;7.60;99.90
7720;DHT22;3902;49.474;8.616;2022-11-14T05:14:07;7.60;99.90
7720;DHT22;3902;49.474;8.616;2022-11-14T05:16:33;7.60;99.90
7720;DHT22;3902;49.474;8.616;2022-11-14T05:18:58;7.60;99.90
7720;DHT22;3902;49.474;8.616;2022-11-14T05:21:24;7.60;99.90
7720;DHT22;3902;49.474;8.616;2022-11-14T05:23:49;7.60;99.90
7720;DHT22;3902;49.474;8.616;2022-11-14T05:26:16;7.60;99.90
7720;DHT22;3902;49.474;8.616;2022-11-14T05:28:42;7.60;99.90
7720;DHT22;3902;49.474;8.616;2022-11-14T05:31:11;7.60;99.90
7720;DHT22;3902;49.474;8.616;2022-11-14T05:33:38;7.60;99.90
7720;DHT22;3902;49.474;8.616;2022-11-14T05:36:05;7.60;99.90
7720;DHT22;3902;49.474;8.616;2022-11-14T05:38:31;7.60;99.90
7720;DHT22;3902;49.474;8.616;2022-11-14T05:40:57;7.60;99.90
7720;DHT22;3902;49.474;8.616;2022-11-14T05:43:23;7.60;99.90
7720;DHT22;3902;49.474;8.616;2022-11-14T05:45:48;7.70;99.90
7720;DHT22;3902;49.474;8.616;2022-11-14T05:48:14;7.70;99.90
7720;DHT22;3902;49.474;8.616;2022-11-14T05:50:39;7.70;99.90
7720;DHT22;3902;49.474;8.616;2022-11-14T05:53:05;7.70;99.90
7720;DHT22;3902;49.474;8.616;2022-11-14T05:55:30;7.70;99.90
7720;DHT22;3902;49.474;8.616;2022-11-14T05:57:59;7.70;99.90
7720;DHT22;3902;49.474;8.616;2022-11-14T06:00:25;7.70;99.90
7720;DHT22;3902;49.474;8.616;2022-11-14T06:02:52;7.70;99.90
7720;DHT22;3902;49.474;8.616;2022-11-14T06:05:19;7.60;99.90
7720;DHT22;3902;49.474;8.616;2022-11-14T06:07:45;7.60;99.90
7720;DHT22;3902;49.474;8.616;2022-11-14T06:10:11;7.60;99.90
7720;DHT22;3902;49.474;8.616;2022-11-14T06:12:37;7.60;99.90
7720;DHT22;3902;49.474;8.616;2022-11-14T06:15:03;7.60;99.90
7720;DHT22;3902;49.474;8.616;2022-11-14T06:17:29;7.70;99.90
7720;DHT22;3902;49.474;8.616;2022-11-14T06:19:54;7.60;99.90
7720;DHT22;3902;49.474;8.616;2022-11-14T06:22:20;7.70;99.90
7720;DHT22;3902;49.474;8.616;2022-11-14T06:24:45;7.70;99.90
7720;DHT22;3902;49.474;8.616;2022-11-14T06:27:11;7.70;99.90
7720;DHT22;3902;49.474;8.616;2022-11-14T06:29:36;7.70;99.90
7720;DHT22;3902;49.474;8.616;2022-11-14T06:32:02;7.70;99.90
7720;DHT22;3902;49.474;8.616;2022-11-14T06:34:27;7.70;99.90
7720;DHT22;3902;49.474;8.616;2022-11-14T06:36:53;7.60;99.90
7720;DHT22;3902;49.474;8.616;2022-11-14T06:39:18;7.60;99.90
7720;DHT22;3902;49.474;8.616;2022-11-14T06:41:44;7.60;99.90
7720;DHT22;3902;49.474;8.616;2022-11-14T06:44:09;7.60;99.90
7720;DHT22;3902;49.474;8.616;2022-11-14T06:46:35;7.60;99.90
7720;DHT22;3902;49.474;8.616;2022-11-14T06:49:00;7.50;99.90
7720;DHT22;3902;49.474;8.616;2022-11-14T06:51:26;7.50;99.90
7720;DHT22;3902;49.474;8.616;2022-11-14T06:53:51;7.50;99.90
7720;DHT22;3902;49.474;8.616;2022-11-14T06:56:17;7.50;99.90
7720;DHT22;3902;49.474;8.616;2022-11-14T06:58:46;7.50;99.90
7720;DHT22;3902;49.474;8.616;2022-11-14T07:01:14;7.40;99.90
7720;DHT22;3902;49.474;8.616;2022-11-14T07:03:41;7.40;99.90
7720;DHT22;3902;49.474;8.616;2022-11-14T07:06:09;7.40;99.90
7720;DHT22;3902;49.474;8.616;2022-11-14T07:08:35;7.40;99.90
7720;DHT22;3902;49.474;8.616;2022-11-14T07:11:05;7.40;99.90
7720;DHT22;3902;49.474;8.616;2022-11-14T07:13:32;7.40;99.90
7720;DHT22;3902;49.474;8.616;2022-11-14T07:15:57;7.40;99.90
7720;DHT22;3902;49.474;8.616;2022-11-14T07:18:23;7.40;99.90
7720;DHT22;3902;49.474;8.616;2022-11-14T07:20:49;7.40;99.90
7720;DHT22;3902;49.474;8.616;2022-11-14T07:23:14;7.40;99.90
7720;DHT22;3902;49.474;8.616;2022-11-14T07:25:40;7.40;99.90
7720;DHT22;3902;49.474;8.616;2022-11-14T07:28:06;7.50;99.90
7720;DHT22;3902;49.474;8.616;2022-11-14T07:30:32;7.50;99.90
7720;DHT22;3902;49.474;8.616;2022-11-14T07:32:58;7.50;99.90
7720;DHT22;3902;49.474;8.616;2022-11-14T07:35:25;7.50;99.90
7720;DHT22;3902;49.474;8.616;2022-11-14T07:37:51;7.50;99.90
7720;DHT22;3902;49.474;8.616;2022-11-14T07:40:17;7.60;99.90
7720;DHT22;3902;49.474;8.616;2022-11-14T07:42:43;7.60;99.90
7720;DHT22;3902;49.474;8.616;2022-11-14T07:45:09;7.60;99.90
7720;DHT22;3902;49.474;8.616;2022-11-14T07:47:35;7.60;99.90
7720;DHT22;3902;49.474;8.616;2022-11-14T07:50:00;7.70;99.90
7720;DHT22;3902;49.474;8.616;2022-11-14T07:52:26;7.70;99.90
7720;DHT22;3902;49.474;8.616;2022-11-14T07:54:51;7.70;99.90
7720;DHT22;3902;49.474;8.616;2022-11-14T07:57:17;7.70;99.90
7720;DHT22;3902;49.474;8.616;2022-11-14T07:59:42;7.70;99.90
7720;DHT22;3902;49.474;8.616;2022-11-14T08:02:11;7.60;99.90
7720;DHT22;3902;49.474;8.616;2022-11-14T08:04:37;7.60;99.90
7720;DHT22;3902;49.474;8.616;2022-11-14T08:07:03;7.60;99.90
7720;DHT22;3902;49.474;8.616;2022-11-14T08:09:28;7.60;99.90
7720;DHT22;3902;49.474;8.616;2022-11-14T08:11:54;7.60;99.90
7720;DHT22;3902;49.474;8.616;2022-11-14T08:14:19;7.60;99.90
7720;DHT22;3902;49.474;8.616;2022-11-14T08:16:45;7.60;99.90
7720;DHT22;3902;49.474;8.616;2022-11-14T08:19:10;7.60;99.90
7720;DHT22;3902;49.474;8.616;2022-11-14T08:21:36;7.60;99.90
7720;DHT22;3902;49.474;8.616;2022-11-14T08:24:01;7.70;99.90
7720;DHT22;3902;49.474;8.616;2022-11-14T08:26:27;7.70;99.90
7720;DHT22;3902;49.474;8.616;2022-11-14T08:28:53;7.70;99.90
7720;DHT22;3902;49.474;8.616;2022-11-14T08:31:20;7.80;99.90
7720;DHT22;3902;49.474;8.616;2022-11-14T08:33:45;7.80;99.90
7720;DHT22;3902;49.474;8.616;2022-11-14T08:36:11;7.80;99.90
7720;DHT22;3902;49.474;8.616;2022-11-14T08:38:36;7.90;99.90
7720;DHT22;3902;49.474;8.616;2022-11-14T08:41:03;8.00;99.90
7720;DHT22;3902;49.474;8.616;2022-11-14T08:43:31;8.10;99.90
7720;DHT22;3902;49.474;8.616;2022-11-14T08:45:58;8.10;99.90
7720;DHT22;3902;49.474;8.616;2022-11-14T08:48:24;8.10;99.90
7720;DHT22;3902;49.474;8.616;2022-11-14T08:50:50;8.00;99.90
7720;DHT22;3902;49.474;8.616;2022-11-14T08:53:15;8.00;99.90
7720;DHT22;3902;49.474;8.616;2022-11-14T08:55:47;8.10;99.90
7720;DHT22;3902;49.474;8.616;2022-11-14T08:58:14;8.10;99.90
7720;DHT22;3902;49.474;8.616;2022-11-14T09:00:39;8.20;99.90
7720;DHT22;3902;49.474;8.616;2022-11-14T09:03:09;8.20;99.90
7720;DHT22;3902;49.474;8.616;2022-11-14T09:05:35;8.20;99.90
7720;DHT22;3902;49.474;8.616;2022-11-14T09:08:01;8.30;99.90
7720;DHT22;3902;49.474;8.616;2022-11-14T09:10:27;8.30;99.90
7720;DHT22;3902;49.474;8.616;2022-11-14T09:12:56;8.30;99.90
7720;DHT22;3902;49.474;8.616;2022-11-14T09:15:22;8.30;99.90
7720;DHT22;3902;49.474;8.616;2022-11-14T09:17:47;8.40;99.90
7720;DHT22;3902;49.474;8.616;2022-11-14T09:20:16;8.50;99.90
7720;DHT22;3902;49.474;8.616;2022-11-14T09:22:43;8.50;99.90
7720;DHT22;3902;49.474;8.616;2022-11-14T09:25:08;8.50;99.90
7720;DHT22;3902;49.474;8.616;2022-11-14T09:27:34;8.50;99.90
7720;DHT22;3902;49.474;8.616;2022-11-14T09:29:59;8.60;99.90
7720;DHT22;3902;49.474;8.616;2022-11-14T09:32:25;8.60;99.90
7720;DHT22;3902;49.474;8.616;2022-11-14T09:34:50;8.60;99.90
7720;DHT22;3902;49.474;8.616;2022-11-14T09:37:16;8.60;99.90
7720;DHT22;3902;49.474;8.616;2022-11-14T09:39:41;8.60;99.90
7720;DHT22;3902;49.474;8.616;2022-11-14T09:42:28;8.60;99.90
7720;DHT22;3902;49.474;8.616;2022-11-14T09:45:00;8.70;99.90
7720;DHT22;3902;49.474;8.616;2022-11-14T09:47:37;8.70;99.90
7720;DHT22;3902;49.474;8.616;2022-11-14T09:52:39;8.70;99.90
7720;DHT22;3902;49.474;8.616;2022-11-14T09:57:35;8.70;99.90
7720;DHT22;3902;49.474;8.616;2022-11-14T10:00:03;8.70;99.90
7720;DHT22;3902;49.474;8.616;2022-11-14T10:10:48;8.70;99.90
7720;DHT22;3902;49.474;8.616;2022-11-14T10:13:35;8.80;99.90
7720;DHT22;3902;49.474;8.616;2022-11-14T10:16:13;8.80;99.90
7720;DHT22;3902;49.474;8.616;2022-11-14T10:22:13;8.80;99.90
7720;DHT22;3902;49.474;8.616;2022-11-14T10:24:55;8.80;99.90
7720;DHT22;3902;49.474;8.616;2022-11-14T10:27:27;8.80;99.90
7720;DHT22;3902;49.474;8.616;2022-11-14T10:30:15;8.90;99.90
7720;DHT22;3902;49.474;8.616;2022-11-14T10:32:58;8.90;99.90
7720;DHT22;3902;49.474;8.616;2022-11-14T10:35:30;9.00;99.90
7720;DHT22;3902;49.474;8.616;2022-11-14T10:38:13;9.00;99.90
7720;DHT22;3902;49.474;8.616;2022-11-14T10:40:52;9.10;99.90
7720;DHT22;3902;49.474;8.616;2022-11-14T10:43:46;9.30;99.90
7720;DHT22;3902;49.474;8.616;2022-11-14T10:48:48;9.60;99.90
7720;DHT22;3902;49.474;8.616;2022-11-14T10:51:37;9.70;99.90
7720;DHT22;3902;49.474;8.616;2022-11-14T10:54:24;9.80;99.90
7720;DHT22;3902;49.474;8.616;2022-11-14T10:56:53;10.00;99.90
7720;DHT22;3902;49.474;8.616;2022-11-14T10:59:19;10.10;99.90
7720;DHT22;3902;49.474;8.616;2022-11-14T11:01:53;10.20;99.90
7720;DHT22;3902;49.474;8.616;2022-11-14T11:04:34;10.30;99.90
7720;DHT22;3902;49.474;8.616;2022-11-14T11:09:37;10.50;99.90
7720;DHT22;3902;49.474;8.616;2022-11-14T11:12:43;10.50;99.90
7720;DHT22;3902;49.474;8.616;2022-11-14T11:15:21;10.50;99.90
7720;DHT22;3902;49.474;8.616;2022-11-14T11:17:58;10.60;99.90
7720;DHT22;3902;49.474;8.616;2022-11-14T11:20:31;10.60;99.90
7720;DHT22;3902;49.474;8.616;2022-11-14T11:25:36;10.60;99.90
7720;DHT22;3902;49.474;8.616;2022-11-14T11:30:37;10.60;99.90
7720;DHT22;3902;49.474;8.616;2022-11-14T11:35:49;10.50;99.90
7720;DHT22;3902;49.474;8.616;2022-11-14T11:38:16;10.60;99.90
7720;DHT22;3902;49.474;8.616;2022-11-14T11:40:47;10.60;99.90
7720;DHT22;3902;49.474;8.616;2022-11-14T11:43:28;10.60;99.90
7720;DHT22;3902;49.474;8.616;2022-11-14T11:45:55;10.60;99.90
7720;DHT22;3902;49.474;8.616;2022-11-14T11:48:38;10.60;99.90
7720;DHT22;3902;49.474;8.616;2022-11-14T11:51:05;10.60;99.90
7720;DHT22;3902;49.474;8.616;2022-11-14T11:53:41;10.60;99.90
7720;DHT22;3902;49.474;8.616;2022-11-14T11:56:13;10.60;99.90
7720;DHT22;3902;49.474;8.616;2022-11-14T11:58:47;10.60;99.90
7720;DHT22;3902;49.474;8.616;2022-11-14T12:01:14;10.60;99.90
7720;DHT22;3902;49.474;8.616;2022-11-14T12:03:47;10.60;99.90
7720;DHT22;3902;49.474;8.616;2022-11-14T12:06:16;10.60;99.90
7720;DHT22;3902;49.474;8.616;2022-11-14T12:11:39;10.60;99.90
7720;DHT22;3902;49.474;8.616;2022-11-14T12:22:20;10.70;99.90
7720;DHT22;3902;49.474;8.616;2022-11-14T12:28:07;10.70;99.90
7720;DHT22;3902;49.474;8.616;2022-11-14T12:30:37;10.60;99.90
7720;DHT22;3902;49.474;8.616;2022-11-14T12:35:55;10.70;99.90
7720;DHT22;3902;49.474;8.616;2022-11-14T12:38:22;10.70;99.90
7720;DHT22;3902;49.474;8.616;2022-11-14T12:40:54;10.70;99.90
7720;DHT22;3902;49.474;8.616;2022-11-14T12:43:41;10.70;99.90
7720;DHT22;3902;49.474;8.616;2022-11-14T12:46:09;10.70;99.90
7720;DHT22;3902;49.474;8.616;2022-11-14T12:48:40;10.70;99.90
7720;DHT22;3902;49.474;8.616;2022-11-14T12:53:55;10.70;99.90
7720;DHT22;3902;49.474;8.616;2022-11-14T13:01:46;10.80;99.90
7720;DHT22;3902;49.474;8.616;2022-11-14T13:04:31;10.80;99.90
7720;DHT22;3902;49.474;8.616;2022-11-14T13:10:14;10.90;99.90
7720;DHT22;3902;49.474;8.616;2022-11-14T13:12:41;10.80;99.90
7720;DHT22;3902;49.474;8.616;2022-11-14T13:18:32;10.90;99.90
7720;DHT22;3902;49.474;8.616;2022-11-14T13:21:27;10.90;99.90
7720;DHT22;3902;49.474;8.616;2022-11-14T13:24:16;10.90;99.90
7720;DHT22;3902;49.474;8.616;2022-11-14T13:26:53;11.00;99.90
7720;DHT22;3902;49.474;8.616;2022-11-14T13:32:03;11.10;99.90
7720;DHT22;3902;49.474;8.616;2022-11-14T13:40:33;11.10;99.90
7720;DHT22;3902;49.474;8.616;2022-11-14T13:46:27;11.20;99.90
7720;DHT22;3902;49.474;8.616;2022-11-14T13:51:34;11.20;99.90
7720;DHT22;3902;49.474;8.616;2022-11-14T13:54:00;11.20;99.90
7720;DHT22;3902;49.474;8.616;2022-11-14T14:15:33;10.80;99.90
7720;DHT22;3902;49.474;8.616;2022-11-14T14:18:39;10.90;99.90
7720;DHT22;3902;49.474;8.616;2022-11-14T14:21:14;10.80;99.90
7720;DHT22;3902;49.474;8.616;2022-11-14T14:26:36;10.80;99.90
7720;DHT22;3902;49.474;8.616;2022-11-14T14:29:24;10.70;99.90
7720;DHT22;3902;49.474;8.616;2022-11-14T14:31:50;10.60;99.90
7720;DHT22;3902;49.474;8.616;2022-11-14T14:34:25;10.60;99.90
7720;DHT22;3902;49.474;8.616;2022-11-14T14:36:56;10.60;99.90
7720;DHT22;3902;49.474;8.616;2022-11-14T14:39:23;10.50;99.90
7720;DHT22;3902;49.474;8.616;2022-11-14T14:41:54;10.60;99.90
7720;DHT22;3902;49.474;8.616;2022-11-14T14:44:29;10.60;99.90
7720;DHT22;3902;49.474;8.616;2022-11-14T14:49:47;10.50;99.90
7720;DHT22;3902;49.474;8.616;2022-11-14T14:54:57;10.60;99.90
7720;DHT22;3902;49.474;8.616;2022-11-14T14:57:23;10.60;99.90
7720;DHT22;3902;49.474;8.616;2022-11-14T15:00:05;10.50;99.90
7720;DHT22;3902;49.474;8.616;2022-11-14T15:02:31;10.50;99.90
7720;DHT22;3902;49.474;8.616;2022-11-14T15:04:58;10.50;99.90
7720;DHT22;3902;49.474;8.616;2022-11-14T15:07:26;10.50;99.90
7720;DHT22;3902;49.474;8.616;2022-11-14T15:09:54;10.50;99.90
7720;DHT22;3902;49.474;8.616;2022-11-14T15:12:24;10.60;99.90
7720;DHT22;3902;49.474;8.616;2022-11-14T15:14:52;10.50;99.90
7720;DHT22;3902;49.474;8.616;2022-11-14T15:17:18;10.50;99.90
7720;DHT22;3902;49.474;8.616;2022-11-14T15:19:45;10.60;99.90
7720;DHT22;3902;49.474;8.616;2022-11-14T15:24:39;10.60;99.90
7720;DHT22;3902;49.474;8.616;2022-11-14T15:27:17;10.50;99.90
7720;DHT22;3902;49.474;8.616;2022-11-14T15:29:49;10.50;99.90
7720;DHT22;3902;49.474;8.616;2022-11-14T15:32:21;10.60;99.90
7720;DHT22;3902;49.474;8.616;2022-11-14T15:35:07;10.50;99.90
7720;DHT22;3902;49.474;8.616;2022-11-14T15:37:33;10.50;99.90
7720;DHT22;3902;49.474;8.616;2022-11-14T15:40:19;10.50;99.90
7720;DHT22;3902;49.474;8.616;2022-11-14T15:42:45;10.50;99.90
7720;DHT22;3902;49.474;8.616;2022-11-14T15:45:28;10.50;99.90
7720;DHT22;3902;49.474;8.616;2022-11-14T15:48:01;10.50;99.90
7720;DHT22;3902;49.474;8.616;2022-11-14T15:50:33;10.50;99.90
7720;DHT22;3902;49.474;8.616;2022-11-14T15:55:30;10.50;99.90
7720;DHT22;3902;49.474;8.616;2022-11-14T15:57:56;10.50;99.90
7720;DHT22;3902;49.474;8.616;2022-11-14T16:00:21;10.50;99.90
7720;DHT22;3902;49.474;8.616;2022-11-14T16:02:53;10.50;99.90
7720;DHT22;3902;49.474;8.616;2022-11-14T16:05:29;10.50;99.90
7720;DHT22;3902;49.474;8.616;2022-11-14T16:07:55;10.50;99.90
7720;DHT22;3902;49.474;8.616;2022-11-14T16:10:26;10.60;99.90
7720;DHT22;3902;49.474;8.616;2022-11-14T16:12:52;10.50;99.90
7720;DHT22;3902;49.474;8.616;2022-11-14T16:15:19;10.50;99.90
7720;DHT22;3902;49.474;8.616;2022-11-14T16:17:47;10.60;99.90
7720;DHT22;3902;49.474;8.616;2022-11-14T16:20:16;10.60;99.90
7720;DHT22;3902;49.474;8.616;2022-11-14T16:22:42;10.50;99.90
7720;DHT22;3902;49.474;8.616;2022-11-14T16:25:15;10.60;99.90
7720;DHT22;3902;49.474;8.616;2022-11-14T16:27:42;10.60;99.90
7720;DHT22;3902;49.474;8.616;2022-11-14T16:30:10;10.60;99.90
7720;DHT22;3902;49.474;8.616;2022-11-14T16:32:36;10.60;99.90
7720;DHT22;3902;49.474;8.616;2022-11-14T16:35:02;10.60;99.90
7720;DHT22;3902;49.474;8.616;2022-11-14T16:37:27;10.60;99.90
7720;DHT22;3902;49.474;8.616;2022-11-14T16:39:53;10.60;99.90
7720;DHT22;3902;49.474;8.616;2022-11-14T16:42:18;10.70;99.90
7720;DHT22;3902;49.474;8.616;2022-11-14T16:44:44;10.70;99.90
7720;DHT22;3902;49.474;8.616;2022-11-14T16:47:12;10.70;99.90
7720;DHT22;3902;49.474;8.616;2022-11-14T16:49:38;10.70;99.90
7720;DHT22;3902;49.474;8.616;2022-11-14T16:52:04;10.70;99.90
7720;DHT22;3902;49.474;8.616;2022-11-14T16:54:33;10.70;99.90
7720;DHT22;3902;49.474;8.616;2022-11-14T16:56:58;10.70;99.90
7720;DHT22;3902;49.474;8.616;2022-11-14T16:59:24;10.70;99.90
7720;DHT22;3902;49.474;8.616;2022-11-14T17:01:49;10.70;99.90
7720;DHT22;3902;49.474;8.616;2022-11-14T17:04:15;10.70;99.90
7720;DHT22;3902;49.474;8.616;2022-11-14T17:06:40;10.70;99.90
7720;DHT22;3902;49.474;8.616;2022-11-14T17:09:06;10.70;99.90
7720;DHT22;3902;49.474;8.616;2022-11-14T17:11:32;10.70;99.90
7720;DHT22;3902;49.474;8.616;2022-11-14T17:13:57;10.70;99.90
7720;DHT22;3902;49.474;8.616;2022-11-14T17:16:23;10.80;99.90
7720;DHT22;3902;49.474;8.616;2022-11-14T17:18:52;10.80;99.90
7720;DHT22;3902;49.474;8.616;2022-11-14T17:21:19;10.80;99.90
7720;DHT22;3902;49.474;8.616;2022-11-14T17:23:45;10.80;99.90
7720;DHT22;3902;49.474;8.616;2022-11-14T17:26:11;10.80;99.90
7720;DHT22;3902;49.474;8.616;2022-11-14T17:28:38;10.80;99.90
7720;DHT22;3902;49.474;8.616;2022-11-14T17:31:06;10.90;99.90
7720;DHT22;3902;49.474;8.616;2022-11-14T17:33:32;10.80;99.90
7720;DHT22;3902;49.474;8.616;2022-11-14T17:36:03;10.80;99.90
7720;DHT22;3902;49.474;8.616;2022-11-14T17:38:31;10.90;99.90
7720;DHT22;3902;49.474;8.616;2022-11-14T17:40:57;10.90;99.90
7720;DHT22;3902;49.474;8.616;2022-11-14T17:43:23;10.90;99.90
7720;DHT22;3902;49.474;8.616;2022-11-14T17:45:57;11.00;99.90
7720;DHT22;3902;49.474;8.616;2022-11-14T17:48:23;11.00;99.90
7720;DHT22;3902;49.474;8.616;2022-11-14T17:50:49;11.00;99.90
7720;DHT22;3902;49.474;8.616;2022-11-14T17:53:15;11.00;99.90
7720;DHT22;3902;49.474;8.616;2022-11-14T17:55:41;11.00;99.90
7720;DHT22;3902;49.474;8.616;2022-11-14T17:58:06;11.00;99.90
7720;DHT22;3902;49.474;8.616;2022-11-14T18:00:32;11.00;99.90
7720;DHT22;3902;49.474;8.616;2022-11-14T18:02:57;11.00;99.90
7720;DHT22;3902;49.474;8.616;2022-11-14T18:05:23;11.00;99.90
7720;DHT22;3902;49.474;8.616;2022-11-14T18:07:48;11.00;99.90
7720;DHT22;3902;49.474;8.616;2022-11-14T18:10:14;11.00;99.90
7720;DHT22;3902;49.474;8.616;2022-11-14T18:12:39;11.00;99.90